Goianapolis, Brazil
Current Conditions -  °F | °C
As of 2:00 PM on Wednesday 28 Jan 2015 (Local Time) from SBGO Reporting Station
Broken Clouds Broken Clouds  
Wind Chill: 86°   Ceiling: 10000
Heat Index: 86°   Visibility: 6mi
Dew Point: 61°   Wind: 7mph
Humidity: 43%   Direction: 120°ESE
Pressure: 30.03"   Gusts: NA
Location:  16.51°S, 49.02°W
Report Text: SBGO 281600Z 12006KT 9999 SCT035 FEW040TCU BKN100 30/16 Q1017
Loading
Personal Weather Stations






























Interactive Weather Map New forecast layout! Learn more

10-Day Weather Forecast

Advertisements
Track Severe Weather on mobile